sensor_id;sensor_type;location;lat;lon;timestamp;P1;durP1;ratioP1;P2;durP2;ratioP2
20397;SDS011;10358;49.590;11.030;2023-08-21T00:01:59;14.43;;;10.48;;
20397;SDS011;10358;49.590;11.030;2023-08-21T00:04:25;18.17;;;10.20;;
20397;SDS011;10358;49.590;11.030;2023-08-21T00:06:50;22.80;;;13.38;;
20397;SDS011;10358;49.590;11.030;2023-08-21T00:09:16;24.17;;;12.88;;
20397;SDS011;10358;49.590;11.030;2023-08-21T00:11:41;27.23;;;14.25;;
20397;SDS011;10358;49.590;11.030;2023-08-21T00:14:07;20.42;;;13.02;;
20397;SDS011;10358;49.590;11.030;2023-08-21T00:16:33;25.05;;;13.88;;
20397;SDS011;10358;49.590;11.030;2023-08-21T00:18:59;22.25;;;13.25;;
20397;SDS011;10358;49.590;11.030;2023-08-21T00:21:25;23.15;;;12.00;;
20397;SDS011;10358;49.590;11.030;2023-08-21T00:23:50;19.17;;;12.48;;
20397;SDS011;10358;49.590;11.030;2023-08-21T00:26:16;17.67;;;10.60;;
20397;SDS011;10358;49.590;11.030;2023-08-21T00:28:42;23.27;;;12.23;;
20397;SDS011;10358;49.590;11.030;2023-08-21T00:31:07;18.13;;;11.30;;
20397;SDS011;10358;49.590;11.030;2023-08-21T00:33:33;18.10;;;12.20;;
20397;SDS011;10358;49.590;11.030;2023-08-21T00:35:59;19.38;;;11.27;;
20397;SDS011;10358;49.590;11.030;2023-08-21T00:38:25;23.75;;;13.45;;
20397;SDS011;10358;49.590;11.030;2023-08-21T00:40:51;21.50;;;12.63;;
20397;SDS011;10358;49.590;11.030;2023-08-21T00:43:17;27.70;;;15.40;;
20397;SDS011;10358;49.590;11.030;2023-08-21T00:45:43;20.63;;;12.05;;
20397;SDS011;10358;49.590;11.030;2023-08-21T00:48:10;15.45;;;11.43;;
20397;SDS011;10358;49.590;11.030;2023-08-21T00:50:37;15.55;;;10.07;;
20397;SDS011;10358;49.590;11.030;2023-08-21T00:53:02;22.38;;;12.27;;
20397;SDS011;10358;49.590;11.030;2023-08-21T00:55:29;15.40;;;9.57;;
20397;SDS011;10358;49.590;11.030;2023-08-21T00:57:56;16.13;;;10.77;;
20397;SDS011;10358;49.590;11.030;2023-08-21T01:00:23;17.38;;;11.13;;
20397;SDS011;10358;49.590;11.030;2023-08-21T01:02:50;16.98;;;9.52;;
20397;SDS011;10358;49.590;11.030;2023-08-21T01:05:17;16.95;;;10.32;;
20397;SDS011;10358;49.590;11.030;2023-08-21T01:07:46;20.27;;;12.65;;
20397;SDS011;10358;49.590;11.030;2023-08-21T01:10:22;18.50;;;12.75;;
20397;SDS011;10358;49.590;11.030;2023-08-21T01:13:14;20.70;;;12.18;;
20397;SDS011;10358;49.590;11.030;2023-08-21T01:15:47;23.60;;;12.50;;
20397;SDS011;10358;49.590;11.030;2023-08-21T01:18:15;15.95;;;10.45;;
20397;SDS011;10358;49.590;11.030;2023-08-21T01:20:41;14.00;;;9.60;;
20397;SDS011;10358;49.590;11.030;2023-08-21T01:23:08;15.15;;;9.55;;
20397;SDS011;10358;49.590;11.030;2023-08-21T01:25:33;13.50;;;9.90;;
20397;SDS011;10358;49.590;11.030;2023-08-21T01:28:02;19.85;;;12.85;;
20397;SDS011;10358;49.590;11.030;2023-08-21T01:30:28;24.50;;;13.23;;
20397;SDS011;10358;49.590;11.030;2023-08-21T01:33:05;19.98;;;12.40;;
20397;SDS011;10358;49.590;11.030;2023-08-21T01:35:35;21.52;;;12.35;;
20397;SDS011;10358;49.590;11.030;2023-08-21T01:38:02;18.88;;;11.68;;
20397;SDS011;10358;49.590;11.030;2023-08-21T01:40:28;17.05;;;11.63;;
20397;SDS011;10358;49.590;11.030;2023-08-21T01:42:54;18.80;;;11.27;;
20397;SDS011;10358;49.590;11.030;2023-08-21T01:45:20;16.63;;;10.13;;
20397;SDS011;10358;49.590;11.030;2023-08-21T01:47:46;16.52;;;8.85;;
20397;SDS011;10358;49.590;11.030;2023-08-21T01:50:12;16.60;;;10.80;;
20397;SDS011;10358;49.590;11.030;2023-08-21T01:52:37;13.75;;;9.77;;
20397;SDS011;10358;49.590;11.030;2023-08-21T01:55:03;17.40;;;10.45;;
20397;SDS011;10358;49.590;11.030;2023-08-21T01:57:29;16.63;;;9.98;;
20397;SDS011;10358;49.590;11.030;2023-08-21T01:59:54;16.85;;;9.98;;
20397;SDS011;10358;49.590;11.030;2023-08-21T02:02:20;13.93;;;9.85;;
20397;SDS011;10358;49.590;11.030;2023-08-21T02:04:45;18.23;;;10.88;;
20397;SDS011;10358;49.590;11.030;2023-08-21T02:07:11;18.40;;;11.23;;
20397;SDS011;10358;49.590;11.030;2023-08-21T02:09:36;17.63;;;11.73;;
20397;SDS011;10358;49.590;11.030;2023-08-21T02:12:02;17.13;;;11.57;;
20397;SDS011;10358;49.590;11.030;2023-08-21T02:14:28;18.42;;;10.82;;
20397;SDS011;10358;49.590;11.030;2023-08-21T02:16:53;16.58;;;11.05;;
20397;SDS011;10358;49.590;11.030;2023-08-21T02:19:19;17.67;;;10.80;;
20397;SDS011;10358;49.590;11.030;2023-08-21T02:21:44;15.30;;;11.48;;
20397;SDS011;10358;49.590;11.030;2023-08-21T02:24:10;17.90;;;11.50;;
20397;SDS011;10358;49.590;11.030;2023-08-21T02:26:36;14.50;;;11.25;;
20397;SDS011;10358;49.590;11.030;2023-08-21T02:29:01;21.08;;;12.95;;
20397;SDS011;10358;49.590;11.030;2023-08-21T02:31:28;20.00;;;13.65;;
20397;SDS011;10358;49.590;11.030;2023-08-21T02:33:54;25.02;;;12.07;;
20397;SDS011;10358;49.590;11.030;2023-08-21T02:36:20;19.02;;;12.43;;
20397;SDS011;10358;49.590;11.030;2023-08-21T02:38:45;17.23;;;10.38;;
20397;SDS011;10358;49.590;11.030;2023-08-21T02:41:11;17.77;;;12.50;;
20397;SDS011;10358;49.590;11.030;2023-08-21T02:43:36;17.27;;;10.95;;
20397;SDS011;10358;49.590;11.030;2023-08-21T02:46:02;15.50;;;10.52;;
20397;SDS011;10358;49.590;11.030;2023-08-21T02:48:27;16.02;;;11.00;;
20397;SDS011;10358;49.590;11.030;2023-08-21T02:50:53;17.42;;;11.48;;
20397;SDS011;10358;49.590;11.030;2023-08-21T02:53:19;15.55;;;11.68;;
20397;SDS011;10358;49.590;11.030;2023-08-21T02:55:45;19.05;;;12.90;;
20397;SDS011;10358;49.590;11.030;2023-08-21T02:58:10;14.15;;;11.25;;
20397;SDS011;10358;49.590;11.030;2023-08-21T03:00:36;16.15;;;12.50;;
20397;SDS011;10358;49.590;11.030;2023-08-21T03:03:02;18.63;;;13.35;;
20397;SDS011;10358;49.590;11.030;2023-08-21T03:05:28;15.80;;;10.73;;
20397;SDS011;10358;49.590;11.030;2023-08-21T03:07:54;15.75;;;11.45;;
20397;SDS011;10358;49.590;11.030;2023-08-21T03:10:19;19.67;;;11.75;;
20397;SDS011;10358;49.590;11.030;2023-08-21T03:12:45;22.13;;;14.75;;
20397;SDS011;10358;49.590;11.030;2023-08-21T03:15:11;20.13;;;13.05;;
20397;SDS011;10358;49.590;11.030;2023-08-21T03:17:36;19.80;;;13.60;;
20397;SDS011;10358;49.590;11.030;2023-08-21T03:20:02;21.85;;;13.75;;
20397;SDS011;10358;49.590;11.030;2023-08-21T03:22:30;17.83;;;12.05;;
20397;SDS011;10358;49.590;11.030;2023-08-21T03:24:56;15.70;;;10.80;;
20397;SDS011;10358;49.590;11.030;2023-08-21T03:27:22;15.55;;;10.63;;
20397;SDS011;10358;49.590;11.030;2023-08-21T03:29:49;15.48;;;11.30;;
20397;SDS011;10358;49.590;11.030;2023-08-21T03:32:15;15.82;;;11.30;;
20397;SDS011;10358;49.590;11.030;2023-08-21T03:34:41;18.48;;;10.75;;
20397;SDS011;10358;49.590;11.030;2023-08-21T03:37:07;15.50;;;11.52;;
20397;SDS011;10358;49.590;11.030;2023-08-21T03:39:33;18.20;;;12.02;;
20397;SDS011;10358;49.590;11.030;2023-08-21T03:41:58;17.15;;;11.90;;
20397;SDS011;10358;49.590;11.030;2023-08-21T03:44:24;14.15;;;10.65;;
20397;SDS011;10358;49.590;11.030;2023-08-21T03:46:49;15.07;;;11.45;;
20397;SDS011;10358;49.590;11.030;2023-08-21T03:49:15;14.30;;;10.95;;
20397;SDS011;10358;49.590;11.030;2023-08-21T03:51:40;17.90;;;12.45;;
20397;SDS011;10358;49.590;11.030;2023-08-21T03:54:06;18.02;;;13.02;;
20397;SDS011;10358;49.590;11.030;2023-08-21T03:56:32;19.35;;;13.85;;
20397;SDS011;10358;49.590;11.030;2023-08-21T03:58:57;16.48;;;13.80;;
20397;SDS011;10358;49.590;11.030;2023-08-21T04:01:23;20.15;;;14.30;;
20397;SDS011;10358;49.590;11.030;2023-08-21T04:03:48;21.77;;;14.82;;
20397;SDS011;10358;49.590;11.030;2023-08-21T04:06:14;20.00;;;14.18;;
20397;SDS011;10358;49.590;11.030;2023-08-21T04:08:40;19.75;;;15.27;;
20397;SDS011;10358;49.590;11.030;2023-08-21T04:11:06;22.65;;;15.80;;
20397;SDS011;10358;49.590;11.030;2023-08-21T04:13:31;18.40;;;13.70;;
20397;SDS011;10358;49.590;11.030;2023-08-21T04:15:57;16.13;;;12.32;;
20397;SDS011;10358;49.590;11.030;2023-08-21T04:18:23;18.98;;;13.45;;
20397;SDS011;10358;49.590;11.030;2023-08-21T04:20:48;21.27;;;12.50;;
20397;SDS011;10358;49.590;11.030;2023-08-21T04:23:14;18.17;;;12.23;;
20397;SDS011;10358;49.590;11.030;2023-08-21T04:25:40;18.55;;;13.48;;
20397;SDS011;10358;49.590;11.030;2023-08-21T04:28:06;14.48;;;11.73;;
20397;SDS011;10358;49.590;11.030;2023-08-21T04:30:32;16.17;;;11.95;;
20397;SDS011;10358;49.590;11.030;2023-08-21T04:32:59;16.20;;;12.80;;
20397;SDS011;10358;49.590;11.030;2023-08-21T04:35:25;18.63;;;13.38;;
20397;SDS011;10358;49.590;11.030;2023-08-21T04:37:50;23.00;;;14.15;;
20397;SDS011;10358;49.590;11.030;2023-08-21T04:40:16;15.82;;;13.43;;
20397;SDS011;10358;49.590;11.030;2023-08-21T04:42:45;18.75;;;13.23;;
20397;SDS011;10358;49.590;11.030;2023-08-21T04:45:10;16.55;;;12.57;;
20397;SDS011;10358;49.590;11.030;2023-08-21T04:47:36;15.50;;;12.00;;
20397;SDS011;10358;49.590;11.030;2023-08-21T04:50:01;14.90;;;13.00;;
20397;SDS011;10358;49.590;11.030;2023-08-21T04:52:27;18.00;;;12.18;;
20397;SDS011;10358;49.590;11.030;2023-08-21T04:54:53;19.90;;;12.85;;
20397;SDS011;10358;49.590;11.030;2023-08-21T04:57:20;19.80;;;15.38;;
20397;SDS011;10358;49.590;11.030;2023-08-21T04:59:48;16.75;;;13.10;;
20397;SDS011;10358;49.590;11.030;2023-08-21T05:02:14;17.05;;;13.35;;
20397;SDS011;10358;49.590;11.030;2023-08-21T05:04:39;21.60;;;13.02;;
20397;SDS011;10358;49.590;11.030;2023-08-21T05:07:05;21.13;;;13.45;;
20397;SDS011;10358;49.590;11.030;2023-08-21T05:09:31;21.45;;;12.88;;
20397;SDS011;10358;49.590;11.030;2023-08-21T05:11:57;21.25;;;13.50;;
20397;SDS011;10358;49.590;11.030;2023-08-21T05:14:23;18.00;;;12.98;;
20397;SDS011;10358;49.590;11.030;2023-08-21T05:16:49;22.25;;;14.80;;
20397;SDS011;10358;49.590;11.030;2023-08-21T05:19:15;24.83;;;15.85;;
20397;SDS011;10358;49.590;11.030;2023-08-21T05:21:41;19.67;;;15.68;;
20397;SDS011;10358;49.590;11.030;2023-08-21T05:24:06;23.52;;;16.15;;
20397;SDS011;10358;49.590;11.030;2023-08-21T05:26:32;22.80;;;16.20;;
20397;SDS011;10358;49.590;11.030;2023-08-21T05:28:58;23.00;;;16.42;;
20397;SDS011;10358;49.590;11.030;2023-08-21T05:31:23;22.55;;;16.75;;
20397;SDS011;10358;49.590;11.030;2023-08-21T05:33:49;24.48;;;16.63;;
20397;SDS011;10358;49.590;11.030;2023-08-21T05:36:14;21.80;;;16.70;;
20397;SDS011;10358;49.590;11.030;2023-08-21T05:38:40;19.70;;;15.63;;
20397;SDS011;10358;49.590;11.030;2023-08-21T05:41:05;23.58;;;16.30;;
20397;SDS011;10358;49.590;11.030;2023-08-21T05:43:31;27.10;;;16.05;;
20397;SDS011;10358;49.590;11.030;2023-08-21T05:45:56;24.35;;;16.75;;
20397;SDS011;10358;49.590;11.030;2023-08-21T05:48:22;24.70;;;16.83;;
20397;SDS011;10358;49.590;11.030;2023-08-21T05:50:51;21.00;;;15.20;;
20397;SDS011;10358;49.590;11.030;2023-08-21T05:53:17;25.20;;;15.95;;
20397;SDS011;10358;49.590;11.030;2023-08-21T05:55:43;23.67;;;15.93;;
20397;SDS011;10358;49.590;11.030;2023-08-21T05:58:08;23.27;;;16.38;;
20397;SDS011;10358;49.590;11.030;2023-08-21T06:00:34;21.08;;;15.88;;
20397;SDS011;10358;49.590;11.030;2023-08-21T06:03:00;20.15;;;14.65;;
20397;SDS011;10358;49.590;11.030;2023-08-21T06:05:26;24.63;;;15.30;;
20397;SDS011;10358;49.590;11.030;2023-08-21T06:07:52;21.05;;;15.43;;
20397;SDS011;10358;49.590;11.030;2023-08-21T06:10:18;25.88;;;15.20;;
20397;SDS011;10358;49.590;11.030;2023-08-21T06:12:43;22.13;;;14.73;;
20397;SDS011;10358;49.590;11.030;2023-08-21T06:15:09;19.35;;;14.60;;
20397;SDS011;10358;49.590;11.030;2023-08-21T06:17:35;19.45;;;15.05;;
20397;SDS011;10358;49.590;11.030;2023-08-21T06:20:01;20.27;;;14.77;;
20397;SDS011;10358;49.590;11.030;2023-08-21T06:22:30;20.80;;;14.23;;
20397;SDS011;10358;49.590;11.030;2023-08-21T06:24:56;22.63;;;14.30;;
20397;SDS011;10358;49.590;11.030;2023-08-21T06:27:21;18.08;;;14.57;;
20397;SDS011;10358;49.590;11.030;2023-08-21T06:29:47;21.92;;;14.93;;
20397;SDS011;10358;49.590;11.030;2023-08-21T06:32:13;18.77;;;14.02;;
20397;SDS011;10358;49.590;11.030;2023-08-21T06:34:38;21.50;;;14.43;;
20397;SDS011;10358;49.590;11.030;2023-08-21T06:37:04;23.05;;;15.15;;
20397;SDS011;10358;49.590;11.030;2023-08-21T06:39:30;24.88;;;14.25;;
20397;SDS011;10358;49.590;11.030;2023-08-21T06:41:56;17.58;;;14.27;;
20397;SDS011;10358;49.590;11.030;2023-08-21T06:44:21;17.77;;;12.73;;
20397;SDS011;10358;49.590;11.030;2023-08-21T06:46:47;18.38;;;13.25;;
20397;SDS011;10358;49.590;11.030;2023-08-21T06:49:12;22.77;;;13.70;;
20397;SDS011;10358;49.590;11.030;2023-08-21T06:51:38;20.30;;;13.63;;
20397;SDS011;10358;49.590;11.030;2023-08-21T06:54:03;17.50;;;12.73;;
20397;SDS011;10358;49.590;11.030;2023-08-21T06:56:29;20.17;;;13.45;;
20397;SDS011;10358;49.590;11.030;2023-08-21T06:58:54;19.38;;;12.88;;
20397;SDS011;10358;49.590;11.030;2023-08-21T07:01:20;21.70;;;13.05;;
20397;SDS011;10358;49.590;11.030;2023-08-21T07:03:46;20.38;;;13.10;;
20397;SDS011;10358;49.590;11.030;2023-08-21T07:06:12;19.88;;;13.25;;
20397;SDS011;10358;49.590;11.030;2023-08-21T07:08:38;20.45;;;13.30;;
20397;SDS011;10358;49.590;11.030;2023-08-21T07:11:05;18.95;;;13.20;;
20397;SDS011;10358;49.590;11.030;2023-08-21T07:13:32;16.73;;;12.40;;
20397;SDS011;10358;49.590;11.030;2023-08-21T07:15:58;19.10;;;11.82;;
20397;SDS011;10358;49.590;11.030;2023-08-21T07:18:27;17.15;;;12.70;;
20397;SDS011;10358;49.590;11.030;2023-08-21T07:20:52;16.10;;;12.43;;
20397;SDS011;10358;49.590;11.030;2023-08-21T07:23:18;17.95;;;12.15;;
20397;SDS011;10358;49.590;11.030;2023-08-21T07:25:44;15.30;;;12.40;;
20397;SDS011;10358;49.590;11.030;2023-08-21T07:28:09;15.13;;;12.20;;
20397;SDS011;10358;49.590;11.030;2023-08-21T07:30:36;19.90;;;12.82;;
20397;SDS011;10358;49.590;11.030;2023-08-21T07:33:03;18.20;;;11.98;;
20397;SDS011;10358;49.590;11.030;2023-08-21T07:35:30;21.27;;;12.05;;
20397;SDS011;10358;49.590;11.030;2023-08-21T07:37:55;18.73;;;11.98;;
20397;SDS011;10358;49.590;11.030;2023-08-21T07:40:21;14.95;;;11.65;;
20397;SDS011;10358;49.590;11.030;2023-08-21T07:42:46;14.77;;;12.15;;
20397;SDS011;10358;49.590;11.030;2023-08-21T07:45:12;14.48;;;11.35;;
20397;SDS011;10358;49.590;11.030;2023-08-21T07:47:37;14.70;;;12.27;;
20397;SDS011;10358;49.590;11.030;2023-08-21T07:50:03;16.45;;;11.98;;
20397;SDS011;10358;49.590;11.030;2023-08-21T07:52:30;15.63;;;11.48;;
20397;SDS011;10358;49.590;11.030;2023-08-21T07:54:55;15.90;;;10.95;;
20397;SDS011;10358;49.590;11.030;2023-08-21T07:57:21;15.25;;;10.50;;
20397;SDS011;10358;49.590;11.030;2023-08-21T07:59:47;15.50;;;11.07;;
20397;SDS011;10358;49.590;11.030;2023-08-21T08:02:12;14.10;;;10.35;;
20397;SDS011;10358;49.590;11.030;2023-08-21T08:04:38;19.00;;;11.05;;
20397;SDS011;10358;49.590;11.030;2023-08-21T08:07:04;16.27;;;10.55;;
20397;SDS011;10358;49.590;11.030;2023-08-21T08:09:30;15.77;;;10.65;;
20397;SDS011;10358;49.590;11.030;2023-08-21T08:11:55;16.60;;;10.65;;
20397;SDS011;10358;49.590;11.030;2023-08-21T08:14:21;16.50;;;10.82;;
20397;SDS011;10358;49.590;11.030;2023-08-21T08:16:46;16.77;;;11.32;;
20397;SDS011;10358;49.590;11.030;2023-08-21T08:19:12;16.55;;;11.77;;
20397;SDS011;10358;49.590;11.030;2023-08-21T08:21:38;14.55;;;11.82;;
20397;SDS011;10358;49.590;11.030;2023-08-21T08:24:03;15.52;;;11.32;;
20397;SDS011;10358;49.590;11.030;2023-08-21T08:26:29;16.65;;;11.88;;
20397;SDS011;10358;49.590;11.030;2023-08-21T08:28:55;16.90;;;11.90;;
20397;SDS011;10358;49.590;11.030;2023-08-21T08:31:20;19.88;;;12.60;;
20397;SDS011;10358;49.590;11.030;2023-08-21T08:33:46;14.85;;;12.05;;
20397;SDS011;10358;49.590;11.030;2023-08-21T08:36:13;16.73;;;11.43;;
20397;SDS011;10358;49.590;11.030;2023-08-21T08:38:38;15.45;;;11.43;;
20397;SDS011;10358;49.590;11.030;2023-08-21T08:41:10;17.50;;;10.80;;
20397;SDS011;10358;49.590;11.030;2023-08-21T08:43:44;14.65;;;10.98;;
20397;SDS011;10358;49.590;11.030;2023-08-21T08:46:11;17.75;;;11.90;;
20397;SDS011;10358;49.590;11.030;2023-08-21T08:48:36;14.85;;;11.40;;
20397;SDS011;10358;49.590;11.030;2023-08-21T08:51:03;13.23;;;10.95;;
20397;SDS011;10358;49.590;11.030;2023-08-21T08:53:29;13.77;;;11.30;;
20397;SDS011;10358;49.590;11.030;2023-08-21T08:55:56;15.85;;;11.25;;
20397;SDS011;10358;49.590;11.030;2023-08-21T08:58:23;16.85;;;11.05;;
20397;SDS011;10358;49.590;11.030;2023-08-21T09:00:48;20.08;;;11.65;;
20397;SDS011;10358;49.590;11.030;2023-08-21T09:03:14;16.33;;;11.27;;
20397;SDS011;10358;49.590;11.030;2023-08-21T09:05:40;16.05;;;11.05;;
20397;SDS011;10358;49.590;11.030;2023-08-21T09:10:38;13.98;;;10.77;;
20397;SDS011;10358;49.590;11.030;2023-08-21T09:13:23;15.60;;;10.75;;
20397;SDS011;10358;49.590;11.030;2023-08-21T09:15:54;15.95;;;11.15;;
20397;SDS011;10358;49.590;11.030;2023-08-21T09:18:21;18.42;;;11.20;;
20397;SDS011;10358;49.590;11.030;2023-08-21T09:20:46;10.90;;;9.23;;
20397;SDS011;10358;49.590;11.030;2023-08-21T09:23:14;13.40;;;9.45;;
20397;SDS011;10358;49.590;11.030;2023-08-21T09:25:41;14.52;;;8.63;;
20397;SDS011;10358;49.590;11.030;2023-08-21T09:28:12;17.40;;;8.35;;
20397;SDS011;10358;49.590;11.030;2023-08-21T09:30:45;12.43;;;9.30;;
20397;SDS011;10358;49.590;11.030;2023-08-21T09:33:19;13.27;;;8.70;;
20397;SDS011;10358;49.590;11.030;2023-08-21T09:35:49;14.68;;;8.65;;
20397;SDS011;10358;49.590;11.030;2023-08-21T09:38:17;11.75;;;8.13;;
20397;SDS011;10358;49.590;11.030;2023-08-21T09:40:51;13.48;;;8.32;;
20397;SDS011;10358;49.590;11.030;2023-08-21T09:45:57;13.50;;;8.90;;
20397;SDS011;10358;49.590;11.030;2023-08-21T09:48:24;17.33;;;8.23;;
20397;SDS011;10358;49.590;11.030;2023-08-21T09:50:52;11.80;;;7.40;;
20397;SDS011;10358;49.590;11.030;2023-08-21T09:53:19;10.55;;;6.38;;
20397;SDS011;10358;49.590;11.030;2023-08-21T09:55:46;8.63;;;6.70;;
20397;SDS011;10358;49.590;11.030;2023-08-21T09:58:12;9.52;;;5.43;;
20397;SDS011;10358;49.590;11.030;2023-08-21T10:00:39;14.35;;;5.82;;
20397;SDS011;10358;49.590;11.030;2023-08-21T10:03:06;8.20;;;6.38;;
20397;SDS011;10358;49.590;11.030;2023-08-21T10:05:36;8.30;;;6.28;;
20397;SDS011;10358;49.590;11.030;2023-08-21T10:08:03;13.90;;;6.65;;
20397;SDS011;10358;49.590;11.030;2023-08-21T10:10:30;7.00;;;5.65;;
20397;SDS011;10358;49.590;11.030;2023-08-21T10:12:57;14.52;;;6.70;;
20397;SDS011;10358;49.590;11.030;2023-08-21T10:15:24;10.27;;;5.82;;
20397;SDS011;10358;49.590;11.030;2023-08-21T10:17:50;9.38;;;6.35;;
20397;SDS011;10358;49.590;11.030;2023-08-21T10:20:20;10.13;;;6.43;;
20397;SDS011;10358;49.590;11.030;2023-08-21T10:22:50;11.82;;;6.47;;
20397;SDS011;10358;49.590;11.030;2023-08-21T10:25:24;7.53;;;6.50;;
20397;SDS011;10358;49.590;11.030;2023-08-21T10:27:54;8.65;;;6.38;;
20397;SDS011;10358;49.590;11.030;2023-08-21T10:32:47;8.68;;;5.93;;
20397;SDS011;10358;49.590;11.030;2023-08-21T10:35:14;8.85;;;5.32;;
20397;SDS011;10358;49.590;11.030;2023-08-21T10:43:37;10.95;;;6.55;;
20397;SDS011;10358;49.590;11.030;2023-08-21T10:46:02;11.63;;;6.60;;
20397;SDS011;10358;49.590;11.030;2023-08-21T10:48:28;9.90;;;6.90;;
20397;SDS011;10358;49.590;11.030;2023-08-21T10:50:54;7.95;;;6.18;;
20397;SDS011;10358;49.590;11.030;2023-08-21T10:53:20;10.20;;;6.30;;
20397;SDS011;10358;49.590;11.030;2023-08-21T10:55:55;9.18;;;5.80;;
20397;SDS011;10358;49.590;11.030;2023-08-21T10:58:20;11.30;;;6.85;;
20397;SDS011;10358;49.590;11.030;2023-08-21T11:00:46;9.27;;;5.70;;
20397;SDS011;10358;49.590;11.030;2023-08-21T11:03:12;10.75;;;6.20;;
20397;SDS011;10358;49.590;11.030;2023-08-21T11:05:40;8.63;;;5.88;;
20397;SDS011;10358;49.590;11.030;2023-08-21T11:08:05;10.48;;;5.80;;
20397;SDS011;10358;49.590;11.030;2023-08-21T11:10:32;10.38;;;6.00;;
20397;SDS011;10358;49.590;11.030;2023-08-21T11:12:58;9.57;;;5.18;;
20397;SDS011;10358;49.590;11.030;2023-08-21T11:15:28;7.18;;;5.30;;
20397;SDS011;10358;49.590;11.030;2023-08-21T11:17:54;11.05;;;6.00;;
20397;SDS011;10358;49.590;11.030;2023-08-21T11:20:27;8.43;;;6.03;;
20397;SDS011;10358;49.590;11.030;2023-08-21T11:23:00;8.93;;;5.80;;
20397;SDS011;10358;49.590;11.030;2023-08-21T11:25:28;11.85;;;6.20;;
20397;SDS011;10358;49.590;11.030;2023-08-21T11:27:54;17.13;;;5.53;;
20397;SDS011;10358;49.590;11.030;2023-08-21T11:30:22;7.15;;;5.55;;
20397;SDS011;10358;49.590;11.030;2023-08-21T11:32:48;10.32;;;5.82;;
20397;SDS011;10358;49.590;11.030;2023-08-21T11:35:15;7.30;;;5.43;;
20397;SDS011;10358;49.590;11.030;2023-08-21T11:37:44;7.78;;;5.40;;
20397;SDS011;10358;49.590;11.030;2023-08-21T11:40:10;10.82;;;5.78;;
20397;SDS011;10358;49.590;11.030;2023-08-21T11:42:38;12.00;;;5.30;;
20397;SDS011;10358;49.590;11.030;2023-08-21T11:45:03;8.27;;;5.43;;
20397;SDS011;10358;49.590;11.030;2023-08-21T11:47:30;11.73;;;5.50;;
20397;SDS011;10358;49.590;11.030;2023-08-21T11:50:03;6.93;;;5.28;;
20397;SDS011;10358;49.590;11.030;2023-08-21T11:52:30;8.93;;;5.20;;
20397;SDS011;10358;49.590;11.030;2023-08-21T11:55:00;6.40;;;4.70;;
20397;SDS011;10358;49.590;11.030;2023-08-21T11:57:26;8.40;;;5.22;;
20397;SDS011;10358;49.590;11.030;2023-08-21T11:59:53;6.93;;;4.80;;
20397;SDS011;10358;49.590;11.030;2023-08-21T12:02:23;7.15;;;5.15;;
20397;SDS011;10358;49.590;11.030;2023-08-21T12:04:53;7.40;;;4.75;;
20397;SDS011;10358;49.590;11.030;2023-08-21T12:07:25;8.55;;;4.63;;
20397;SDS011;10358;49.590;11.030;2023-08-21T12:09:51;9.48;;;4.95;;
20397;SDS011;10358;49.590;11.030;2023-08-21T12:12:17;8.05;;;4.57;;
20397;SDS011;10358;49.590;11.030;2023-08-21T12:14:42;10.40;;;5.03;;
20397;SDS011;10358;49.590;11.030;2023-08-21T12:17:08;9.70;;;4.55;;
20397;SDS011;10358;49.590;11.030;2023-08-21T12:19:36;8.57;;;4.60;;
20397;SDS011;10358;49.590;11.030;2023-08-21T12:22:04;5.93;;;4.18;;
20397;SDS011;10358;49.590;11.030;2023-08-21T12:24:30;6.55;;;4.85;;
20397;SDS011;10358;49.590;11.030;2023-08-21T12:26:55;7.05;;;4.72;;
20397;SDS011;10358;49.590;11.030;2023-08-21T12:29:21;8.23;;;4.68;;
20397;SDS011;10358;49.590;11.030;2023-08-21T12:31:47;6.88;;;4.45;;
20397;SDS011;10358;49.590;11.030;2023-08-21T12:34:15;6.72;;;4.35;;
20397;SDS011;10358;49.590;11.030;2023-08-21T12:36:41;6.93;;;4.43;;
20397;SDS011;10358;49.590;11.030;2023-08-21T12:39:06;8.07;;;4.78;;
20397;SDS011;10358;49.590;11.030;2023-08-21T12:41:34;7.20;;;4.57;;
20397;SDS011;10358;49.590;11.030;2023-08-21T12:44:01;11.27;;;4.53;;
20397;SDS011;10358;49.590;11.030;2023-08-21T12:46:28;7.70;;;4.28;;
20397;SDS011;10358;49.590;11.030;2023-08-21T12:48:54;5.47;;;4.28;;
20397;SDS011;10358;49.590;11.030;2023-08-21T12:51:20;8.18;;;4.30;;
20397;SDS011;10358;49.590;11.030;2023-08-21T12:53:46;8.80;;;4.28;;
20397;SDS011;10358;49.590;11.030;2023-08-21T12:56:14;11.35;;;3.90;;
20397;SDS011;10358;49.590;11.030;2023-08-21T12:58:41;6.32;;;4.32;;
20397;SDS011;10358;49.590;11.030;2023-08-21T13:01:07;8.68;;;4.28;;
20397;SDS011;10358;49.590;11.030;2023-08-21T13:03:33;14.75;;;3.90;;
20397;SDS011;10358;49.590;11.030;2023-08-21T13:05:58;7.70;;;3.60;;
20397;SDS011;10358;49.590;11.030;2023-08-21T13:08:24;7.03;;;4.03;;
20397;SDS011;10358;49.590;11.030;2023-08-21T13:10:49;7.47;;;3.88;;
20397;SDS011;10358;49.590;11.030;2023-08-21T13:13:15;11.15;;;4.47;;
20397;SDS011;10358;49.590;11.030;2023-08-21T13:15:41;7.72;;;3.38;;
20397;SDS011;10358;49.590;11.030;2023-08-21T13:18:09;5.93;;;4.00;;
20397;SDS011;10358;49.590;11.030;2023-08-21T13:20:35;6.22;;;4.18;;
20397;SDS011;10358;49.590;11.030;2023-08-21T13:23:01;5.10;;;3.80;;
20397;SDS011;10358;49.590;11.030;2023-08-21T13:25:27;6.93;;;3.58;;
20397;SDS011;10358;49.590;11.030;2023-08-21T13:27:54;8.90;;;4.03;;
20397;SDS011;10358;49.590;11.030;2023-08-21T13:30:20;4.95;;;3.90;;
20397;SDS011;10358;49.590;11.030;2023-08-21T13:32:45;6.13;;;3.80;;
20397;SDS011;10358;49.590;11.030;2023-08-21T13:35:11;5.63;;;4.10;;
20397;SDS011;10358;49.590;11.030;2023-08-21T13:37:37;6.45;;;3.63;;
20397;SDS011;10358;49.590;11.030;2023-08-21T13:40:03;6.22;;;4.00;;
20397;SDS011;10358;49.590;11.030;2023-08-21T13:42:39;5.80;;;3.80;;
20397;SDS011;10358;49.590;11.030;2023-08-21T13:45:07;9.80;;;4.10;;
20397;SDS011;10358;49.590;11.030;2023-08-21T13:47:34;5.28;;;4.07;;
20397;SDS011;10358;49.590;11.030;2023-08-21T13:50:00;6.50;;;3.70;;
20397;SDS011;10358;49.590;11.030;2023-08-21T13:52:26;9.43;;;4.18;;
20397;SDS011;10358;49.590;11.030;2023-08-21T13:54:51;6.07;;;3.97;;
20397;SDS011;10358;49.590;11.030;2023-08-21T13:57:17;7.97;;;4.32;;
20397;SDS011;10358;49.590;11.030;2023-08-21T13:59:42;7.78;;;3.90;;
20397;SDS011;10358;49.590;11.030;2023-08-21T14:02:08;11.15;;;3.92;;
20397;SDS011;10358;49.590;11.030;2023-08-21T14:04:34;6.07;;;4.25;;
20397;SDS011;10358;49.590;11.030;2023-08-21T14:06:59;5.85;;;4.07;;
20397;SDS011;10358;49.590;11.030;2023-08-21T14:09:25;4.97;;;3.67;;
20397;SDS011;10358;49.590;11.030;2023-08-21T14:11:50;5.80;;;4.07;;
20397;SDS011;10358;49.590;11.030;2023-08-21T14:14:16;7.13;;;4.10;;
20397;SDS011;10358;49.590;11.030;2023-08-21T14:16:41;5.15;;;3.58;;
20397;SDS011;10358;49.590;11.030;2023-08-21T14:19:07;6.07;;;3.92;;
20397;SDS011;10358;49.590;11.030;2023-08-21T14:21:32;13.02;;;3.78;;
20397;SDS011;10358;49.590;11.030;2023-08-21T14:23:58;7.97;;;4.00;;
20397;SDS011;10358;49.590;11.030;2023-08-21T14:26:23;6.07;;;3.97;;